sensor_id;sensor_type;location;lat;lon;timestamp;P1;durP1;ratioP1;P2;durP2;ratioP2
23561;SDS011;11959;49.418;8.728;2023-07-31T00:00:26;3.08;;;1.48;;
23561;SDS011;11959;49.418;8.728;2023-07-31T00:02:52;3.80;;;1.63;;
23561;SDS011;11959;49.418;8.728;2023-07-31T00:05:19;5.63;;;1.65;;
23561;SDS011;11959;49.418;8.728;2023-07-31T00:07:44;3.72;;;1.70;;
23561;SDS011;11959;49.418;8.728;2023-07-31T00:10:10;6.28;;;1.67;;
23561;SDS011;11959;49.418;8.728;2023-07-31T00:12:35;3.95;;;1.63;;
23561;SDS011;11959;49.418;8.728;2023-07-31T00:15:03;3.95;;;1.60;;
23561;SDS011;11959;49.418;8.728;2023-07-31T00:17:29;5.45;;;1.65;;
23561;SDS011;11959;49.418;8.728;2023-07-31T00:19:55;3.92;;;1.63;;
23561;SDS011;11959;49.418;8.728;2023-07-31T00:22:20;4.90;;;1.65;;
23561;SDS011;11959;49.418;8.728;2023-07-31T00:24:46;4.45;;;1.95;;
23561;SDS011;11959;49.418;8.728;2023-07-31T00:27:12;5.90;;;1.77;;
23561;SDS011;11959;49.418;8.728;2023-07-31T00:29:37;3.17;;;1.63;;
23561;SDS011;11959;49.418;8.728;2023-07-31T00:32:03;3.45;;;1.48;;
23561;SDS011;11959;49.418;8.728;2023-07-31T00:34:29;4.32;;;1.70;;
23561;SDS011;11959;49.418;8.728;2023-07-31T00:36:55;4.88;;;1.60;;
23561;SDS011;11959;49.418;8.728;2023-07-31T00:39:20;5.63;;;1.73;;
23561;SDS011;11959;49.418;8.728;2023-07-31T00:41:46;4.95;;;1.42;;
23561;SDS011;11959;49.418;8.728;2023-07-31T00:44:12;6.30;;;1.75;;
23561;SDS011;11959;49.418;8.728;2023-07-31T00:46:37;4.10;;;1.70;;
23561;SDS011;11959;49.418;8.728;2023-07-31T00:49:03;3.95;;;1.65;;
23561;SDS011;11959;49.418;8.728;2023-07-31T00:51:30;5.47;;;1.80;;
23561;SDS011;11959;49.418;8.728;2023-07-31T00:53:55;3.03;;;1.70;;
23561;SDS011;11959;49.418;8.728;2023-07-31T00:56:21;3.90;;;1.92;;
23561;SDS011;11959;49.418;8.728;2023-07-31T00:58:48;3.97;;;1.60;;
23561;SDS011;11959;49.418;8.728;2023-07-31T01:01:14;4.43;;;1.85;;
23561;SDS011;11959;49.418;8.728;2023-07-31T01:03:40;3.80;;;1.60;;
23561;SDS011;11959;49.418;8.728;2023-07-31T01:08:50;5.80;;;1.70;;
23561;SDS011;11959;49.418;8.728;2023-07-31T01:11:28;7.45;;;2.05;;
23561;SDS011;11959;49.418;8.728;2023-07-31T01:14:10;7.55;;;2.00;;
23561;SDS011;11959;49.418;8.728;2023-07-31T01:16:35;2.85;;;1.48;;
23561;SDS011;11959;49.418;8.728;2023-07-31T01:19:01;4.22;;;1.35;;
23561;SDS011;11959;49.418;8.728;2023-07-31T01:21:30;4.03;;;1.70;;
23561;SDS011;11959;49.418;8.728;2023-07-31T01:26:33;4.63;;;1.90;;
23561;SDS011;11959;49.418;8.728;2023-07-31T01:29:17;4.25;;;1.60;;
23561;SDS011;11959;49.418;8.728;2023-07-31T01:31:51;4.30;;;1.65;;
23561;SDS011;11959;49.418;8.728;2023-07-31T01:34:20;5.18;;;1.73;;
23561;SDS011;11959;49.418;8.728;2023-07-31T01:36:47;5.63;;;1.98;;
23561;SDS011;11959;49.418;8.728;2023-07-31T01:39:13;3.70;;;1.58;;
23561;SDS011;11959;49.418;8.728;2023-07-31T01:41:40;4.13;;;1.90;;
23561;SDS011;11959;49.418;8.728;2023-07-31T01:44:06;7.82;;;1.55;;
23561;SDS011;11959;49.418;8.728;2023-07-31T01:46:32;6.50;;;2.10;;
23561;SDS011;11959;49.418;8.728;2023-07-31T01:48:57;5.35;;;1.63;;
23561;SDS011;11959;49.418;8.728;2023-07-31T01:51:23;4.50;;;1.60;;
23561;SDS011;11959;49.418;8.728;2023-07-31T01:53:49;6.55;;;1.92;;
23561;SDS011;11959;49.418;8.728;2023-07-31T01:56:15;5.10;;;1.70;;
23561;SDS011;11959;49.418;8.728;2023-07-31T01:58:40;4.47;;;1.95;;
23561;SDS011;11959;49.418;8.728;2023-07-31T02:01:06;4.50;;;1.85;;
23561;SDS011;11959;49.418;8.728;2023-07-31T02:03:31;4.72;;;1.85;;
23561;SDS011;11959;49.418;8.728;2023-07-31T02:05:57;5.45;;;1.73;;
23561;SDS011;11959;49.418;8.728;2023-07-31T02:08:23;5.40;;;1.83;;
23561;SDS011;11959;49.418;8.728;2023-07-31T02:10:48;5.43;;;1.88;;
23561;SDS011;11959;49.418;8.728;2023-07-31T02:13:14;4.03;;;1.88;;
23561;SDS011;11959;49.418;8.728;2023-07-31T02:15:39;4.65;;;1.75;;
23561;SDS011;11959;49.418;8.728;2023-07-31T02:18:05;5.32;;;2.08;;
23561;SDS011;11959;49.418;8.728;2023-07-31T02:20:33;5.18;;;1.77;;
23561;SDS011;11959;49.418;8.728;2023-07-31T02:23:00;5.20;;;2.03;;
23561;SDS011;11959;49.418;8.728;2023-07-31T02:25:25;4.88;;;1.98;;
23561;SDS011;11959;49.418;8.728;2023-07-31T02:27:51;4.85;;;1.65;;
23561;SDS011;11959;49.418;8.728;2023-07-31T02:30:17;6.10;;;2.20;;
23561;SDS011;11959;49.418;8.728;2023-07-31T02:32:42;4.50;;;1.75;;
23561;SDS011;11959;49.418;8.728;2023-07-31T02:35:08;5.72;;;2.10;;
23561;SDS011;11959;49.418;8.728;2023-07-31T02:37:34;6.38;;;1.90;;
23561;SDS011;11959;49.418;8.728;2023-07-31T02:40:00;4.60;;;1.70;;
23561;SDS011;11959;49.418;8.728;2023-07-31T02:42:25;5.60;;;1.80;;
23561;SDS011;11959;49.418;8.728;2023-07-31T02:44:51;4.82;;;1.90;;
23561;SDS011;11959;49.418;8.728;2023-07-31T02:47:20;4.45;;;1.98;;
23561;SDS011;11959;49.418;8.728;2023-07-31T02:49:47;5.07;;;1.90;;
23561;SDS011;11959;49.418;8.728;2023-07-31T02:52:12;4.25;;;2.00;;
23561;SDS011;11959;49.418;8.728;2023-07-31T02:54:38;3.78;;;1.70;;
23561;SDS011;11959;49.418;8.728;2023-07-31T02:57:04;4.40;;;2.08;;
23561;SDS011;11959;49.418;8.728;2023-07-31T02:59:30;6.18;;;1.95;;
23561;SDS011;11959;49.418;8.728;2023-07-31T03:01:55;5.47;;;1.90;;
23561;SDS011;11959;49.418;8.728;2023-07-31T03:04:21;4.72;;;1.90;;
23561;SDS011;11959;49.418;8.728;2023-07-31T03:06:46;5.63;;;1.90;;
23561;SDS011;11959;49.418;8.728;2023-07-31T03:09:12;4.43;;;1.77;;
23561;SDS011;11959;49.418;8.728;2023-07-31T03:11:38;4.22;;;1.92;;
23561;SDS011;11959;49.418;8.728;2023-07-31T03:14:03;6.35;;;2.30;;
23561;SDS011;11959;49.418;8.728;2023-07-31T03:16:29;5.07;;;1.90;;
23561;SDS011;11959;49.418;8.728;2023-07-31T03:18:55;3.13;;;1.90;;
23561;SDS011;11959;49.418;8.728;2023-07-31T03:21:20;5.18;;;1.80;;
23561;SDS011;11959;49.418;8.728;2023-07-31T03:23:46;4.35;;;2.17;;
23561;SDS011;11959;49.418;8.728;2023-07-31T03:26:11;4.20;;;2.00;;
23561;SDS011;11959;49.418;8.728;2023-07-31T03:28:37;6.38;;;2.05;;
23561;SDS011;11959;49.418;8.728;2023-07-31T03:31:03;5.32;;;2.17;;
23561;SDS011;11959;49.418;8.728;2023-07-31T03:33:29;3.50;;;1.70;;
23561;SDS011;11959;49.418;8.728;2023-07-31T03:35:54;7.15;;;2.30;;
23561;SDS011;11959;49.418;8.728;2023-07-31T03:38:20;4.10;;;2.15;;
23561;SDS011;11959;49.418;8.728;2023-07-31T03:40:45;4.18;;;1.95;;
23561;SDS011;11959;49.418;8.728;2023-07-31T03:43:11;5.47;;;2.10;;
23561;SDS011;11959;49.418;8.728;2023-07-31T03:45:37;5.88;;;2.10;;
23561;SDS011;11959;49.418;8.728;2023-07-31T03:48:03;5.25;;;2.15;;
23561;SDS011;11959;49.418;8.728;2023-07-31T03:50:33;5.88;;;2.30;;
23561;SDS011;11959;49.418;8.728;2023-07-31T03:53:01;3.72;;;1.95;;
23561;SDS011;11959;49.418;8.728;2023-07-31T03:55:26;3.70;;;2.10;;
23561;SDS011;11959;49.418;8.728;2023-07-31T03:57:52;4.05;;;2.08;;
23561;SDS011;11959;49.418;8.728;2023-07-31T04:00:18;5.40;;;2.30;;
23561;SDS011;11959;49.418;8.728;2023-07-31T04:02:44;5.05;;;2.10;;
23561;SDS011;11959;49.418;8.728;2023-07-31T04:05:09;5.07;;;1.85;;
23561;SDS011;11959;49.418;8.728;2023-07-31T04:07:35;6.95;;;2.40;;
23561;SDS011;11959;49.418;8.728;2023-07-31T04:10:01;4.82;;;1.77;;
23561;SDS011;11959;49.418;8.728;2023-07-31T04:12:28;3.70;;;1.83;;
23561;SDS011;11959;49.418;8.728;2023-07-31T04:14:54;5.00;;;1.92;;
23561;SDS011;11959;49.418;8.728;2023-07-31T04:17:19;7.60;;;2.10;;
23561;SDS011;11959;49.418;8.728;2023-07-31T04:19:45;4.35;;;2.00;;
23561;SDS011;11959;49.418;8.728;2023-07-31T04:22:11;8.48;;;2.63;;
23561;SDS011;11959;49.418;8.728;2023-07-31T04:24:36;5.35;;;2.20;;
23561;SDS011;11959;49.418;8.728;2023-07-31T04:27:02;5.22;;;1.83;;
23561;SDS011;11959;49.418;8.728;2023-07-31T04:29:28;6.03;;;2.17;;
23561;SDS011;11959;49.418;8.728;2023-07-31T04:31:54;4.55;;;2.35;;
23561;SDS011;11959;49.418;8.728;2023-07-31T04:34:19;4.15;;;2.03;;
23561;SDS011;11959;49.418;8.728;2023-07-31T04:36:45;6.50;;;2.35;;
23561;SDS011;11959;49.418;8.728;2023-07-31T04:39:11;3.75;;;2.20;;
23561;SDS011;11959;49.418;8.728;2023-07-31T04:41:36;4.95;;;2.08;;
23561;SDS011;11959;49.418;8.728;2023-07-31T04:44:02;5.22;;;2.00;;
23561;SDS011;11959;49.418;8.728;2023-07-31T04:46:29;5.10;;;2.20;;
23561;SDS011;11959;49.418;8.728;2023-07-31T04:48:54;5.82;;;2.30;;
23561;SDS011;11959;49.418;8.728;2023-07-31T04:51:20;5.10;;;2.50;;
23561;SDS011;11959;49.418;8.728;2023-07-31T04:53:46;5.43;;;1.92;;
23561;SDS011;11959;49.418;8.728;2023-07-31T04:56:12;4.75;;;2.08;;
23561;SDS011;11959;49.418;8.728;2023-07-31T04:58:37;7.88;;;2.30;;
23561;SDS011;11959;49.418;8.728;2023-07-31T05:01:03;9.45;;;2.78;;
23561;SDS011;11959;49.418;8.728;2023-07-31T05:03:29;5.35;;;2.38;;
23561;SDS011;11959;49.418;8.728;2023-07-31T05:05:54;4.90;;;2.45;;
23561;SDS011;11959;49.418;8.728;2023-07-31T05:08:20;4.35;;;2.40;;
23561;SDS011;11959;49.418;8.728;2023-07-31T05:10:46;5.20;;;2.50;;
23561;SDS011;11959;49.418;8.728;2023-07-31T05:13:11;4.88;;;2.83;;
23561;SDS011;11959;49.418;8.728;2023-07-31T05:15:37;4.38;;;2.13;;
23561;SDS011;11959;49.418;8.728;2023-07-31T05:18:03;5.32;;;2.55;;
23561;SDS011;11959;49.418;8.728;2023-07-31T05:20:28;3.92;;;2.30;;
23561;SDS011;11959;49.418;8.728;2023-07-31T05:22:54;6.47;;;2.40;;
23561;SDS011;11959;49.418;8.728;2023-07-31T05:25:20;3.33;;;2.35;;
23561;SDS011;11959;49.418;8.728;2023-07-31T05:27:45;5.95;;;2.20;;
23561;SDS011;11959;49.418;8.728;2023-07-31T05:30:11;5.78;;;2.63;;
23561;SDS011;11959;49.418;8.728;2023-07-31T05:32:36;5.70;;;2.38;;
23561;SDS011;11959;49.418;8.728;2023-07-31T05:35:02;6.57;;;2.42;;
23561;SDS011;11959;49.418;8.728;2023-07-31T05:37:28;6.15;;;2.40;;
23561;SDS011;11959;49.418;8.728;2023-07-31T05:39:54;5.60;;;2.80;;
23561;SDS011;11959;49.418;8.728;2023-07-31T05:42:19;5.97;;;2.35;;
23561;SDS011;11959;49.418;8.728;2023-07-31T05:44:45;4.70;;;2.55;;
23561;SDS011;11959;49.418;8.728;2023-07-31T05:47:12;5.57;;;2.55;;
23561;SDS011;11959;49.418;8.728;2023-07-31T05:49:37;5.70;;;2.20;;
23561;SDS011;11959;49.418;8.728;2023-07-31T05:52:03;3.92;;;2.28;;
23561;SDS011;11959;49.418;8.728;2023-07-31T05:54:29;5.45;;;2.22;;
23561;SDS011;11959;49.418;8.728;2023-07-31T05:56:55;5.63;;;2.40;;
23561;SDS011;11959;49.418;8.728;2023-07-31T05:59:20;4.80;;;2.75;;
23561;SDS011;11959;49.418;8.728;2023-07-31T06:01:46;4.18;;;2.20;;
23561;SDS011;11959;49.418;8.728;2023-07-31T06:04:12;6.43;;;2.22;;
23561;SDS011;11959;49.418;8.728;2023-07-31T06:06:37;8.00;;;2.28;;
23561;SDS011;11959;49.418;8.728;2023-07-31T06:09:03;5.00;;;2.22;;
23561;SDS011;11959;49.418;8.728;2023-07-31T06:11:29;4.53;;;2.15;;
23561;SDS011;11959;49.418;8.728;2023-07-31T06:13:56;5.95;;;2.25;;
23561;SDS011;11959;49.418;8.728;2023-07-31T06:16:22;5.00;;;2.20;;
23561;SDS011;11959;49.418;8.728;2023-07-31T06:18:48;5.75;;;2.17;;
23561;SDS011;11959;49.418;8.728;2023-07-31T06:21:13;5.07;;;2.13;;
23561;SDS011;11959;49.418;8.728;2023-07-31T06:23:39;5.10;;;2.35;;
23561;SDS011;11959;49.418;8.728;2023-07-31T06:26:05;4.53;;;2.33;;
23561;SDS011;11959;49.418;8.728;2023-07-31T06:28:31;4.63;;;2.20;;
23561;SDS011;11959;49.418;8.728;2023-07-31T06:30:57;6.25;;;2.20;;
23561;SDS011;11959;49.418;8.728;2023-07-31T06:33:23;3.47;;;2.03;;
23561;SDS011;11959;49.418;8.728;2023-07-31T06:35:49;4.70;;;1.90;;
23561;SDS011;11959;49.418;8.728;2023-07-31T06:38:15;5.13;;;1.98;;
23561;SDS011;11959;49.418;8.728;2023-07-31T06:40:43;6.07;;;2.65;;
23561;SDS011;11959;49.418;8.728;2023-07-31T06:43:09;4.85;;;2.47;;
23561;SDS011;11959;49.418;8.728;2023-07-31T06:45:35;4.07;;;2.15;;
23561;SDS011;11959;49.418;8.728;2023-07-31T06:48:01;6.32;;;2.00;;
23561;SDS011;11959;49.418;8.728;2023-07-31T06:50:30;5.05;;;2.25;;
23561;SDS011;11959;49.418;8.728;2023-07-31T06:52:56;6.53;;;2.58;;
23561;SDS011;11959;49.418;8.728;2023-07-31T06:55:22;5.93;;;2.22;;
23561;SDS011;11959;49.418;8.728;2023-07-31T06:57:49;5.78;;;2.25;;
23561;SDS011;11959;49.418;8.728;2023-07-31T07:00:16;2.53;;;1.60;;
23561;SDS011;11959;49.418;8.728;2023-07-31T07:02:43;7.32;;;2.38;;
23561;SDS011;11959;49.418;8.728;2023-07-31T07:05:08;5.93;;;2.00;;
23561;SDS011;11959;49.418;8.728;2023-07-31T07:07:35;6.03;;;2.53;;
23561;SDS011;11959;49.418;8.728;2023-07-31T07:10:01;4.95;;;2.13;;
23561;SDS011;11959;49.418;8.728;2023-07-31T07:12:29;6.95;;;2.58;;
23561;SDS011;11959;49.418;8.728;2023-07-31T07:14:55;3.78;;;2.08;;
23561;SDS011;11959;49.418;8.728;2023-07-31T07:17:22;5.90;;;2.25;;
23561;SDS011;11959;49.418;8.728;2023-07-31T07:19:48;5.82;;;2.47;;
23561;SDS011;11959;49.418;8.728;2023-07-31T07:22:14;3.78;;;2.30;;
23561;SDS011;11959;49.418;8.728;2023-07-31T07:24:40;4.90;;;2.30;;
23561;SDS011;11959;49.418;8.728;2023-07-31T07:27:06;5.35;;;2.10;;
23561;SDS011;11959;49.418;8.728;2023-07-31T07:29:33;7.13;;;2.50;;
23561;SDS011;11959;49.418;8.728;2023-07-31T07:31:59;4.88;;;2.00;;
23561;SDS011;11959;49.418;8.728;2023-07-31T07:34:26;3.45;;;2.08;;
23561;SDS011;11959;49.418;8.728;2023-07-31T07:36:52;3.80;;;2.08;;
23561;SDS011;11959;49.418;8.728;2023-07-31T07:39:18;5.00;;;2.17;;
23561;SDS011;11959;49.418;8.728;2023-07-31T07:41:45;6.63;;;2.25;;
23561;SDS011;11959;49.418;8.728;2023-07-31T07:44:11;4.10;;;2.00;;
23561;SDS011;11959;49.418;8.728;2023-07-31T07:46:38;6.15;;;2.30;;
23561;SDS011;11959;49.418;8.728;2023-07-31T07:49:03;6.47;;;2.20;;
23561;SDS011;11959;49.418;8.728;2023-07-31T07:51:29;5.47;;;2.03;;
23561;SDS011;11959;49.418;8.728;2023-07-31T07:53:56;6.13;;;2.00;;
23561;SDS011;11959;49.418;8.728;2023-07-31T07:56:26;4.82;;;2.25;;
23561;SDS011;11959;49.418;8.728;2023-07-31T07:58:52;6.78;;;2.17;;
23561;SDS011;11959;49.418;8.728;2023-07-31T08:01:18;5.45;;;2.35;;
23561;SDS011;11959;49.418;8.728;2023-07-31T08:03:44;4.10;;;2.00;;
23561;SDS011;11959;49.418;8.728;2023-07-31T08:06:09;6.47;;;2.20;;
23561;SDS011;11959;49.418;8.728;2023-07-31T08:08:36;4.47;;;2.28;;
23561;SDS011;11959;49.418;8.728;2023-07-31T08:11:02;6.25;;;2.10;;
23561;SDS011;11959;49.418;8.728;2023-07-31T08:13:28;10.07;;;2.65;;
23561;SDS011;11959;49.418;8.728;2023-07-31T08:15:54;4.85;;;2.03;;
23561;SDS011;11959;49.418;8.728;2023-07-31T08:18:19;6.40;;;2.10;;
23561;SDS011;11959;49.418;8.728;2023-07-31T08:20:45;5.72;;;2.38;;
23561;SDS011;11959;49.418;8.728;2023-07-31T08:23:11;5.40;;;2.10;;
23561;SDS011;11959;49.418;8.728;2023-07-31T08:25:37;5.47;;;2.28;;
23561;SDS011;11959;49.418;8.728;2023-07-31T08:28:03;5.47;;;2.35;;
23561;SDS011;11959;49.418;8.728;2023-07-31T08:30:29;5.60;;;2.33;;
23561;SDS011;11959;49.418;8.728;2023-07-31T08:32:55;5.88;;;2.10;;
23561;SDS011;11959;49.418;8.728;2023-07-31T08:35:21;7.20;;;2.40;;
23561;SDS011;11959;49.418;8.728;2023-07-31T08:37:47;5.93;;;2.00;;
23561;SDS011;11959;49.418;8.728;2023-07-31T08:40:12;4.78;;;1.90;;
23561;SDS011;11959;49.418;8.728;2023-07-31T08:42:57;6.03;;;2.40;;
23561;SDS011;11959;49.418;8.728;2023-07-31T08:45:27;4.00;;;2.08;;
23561;SDS011;11959;49.418;8.728;2023-07-31T08:47:53;5.60;;;2.20;;
23561;SDS011;11959;49.418;8.728;2023-07-31T08:50:20;5.85;;;2.65;;
23561;SDS011;11959;49.418;8.728;2023-07-31T08:52:47;4.53;;;2.45;;
23561;SDS011;11959;49.418;8.728;2023-07-31T08:55:13;4.40;;;2.30;;
23561;SDS011;11959;49.418;8.728;2023-07-31T08:57:39;6.45;;;2.30;;
23561;SDS011;11959;49.418;8.728;2023-07-31T09:00:07;6.03;;;2.20;;
23561;SDS011;11959;49.418;8.728;2023-07-31T09:02:37;5.05;;;2.55;;
23561;SDS011;11959;49.418;8.728;2023-07-31T09:05:07;6.22;;;2.13;;
23561;SDS011;11959;49.418;8.728;2023-07-31T09:07:34;5.70;;;2.35;;
23561;SDS011;11959;49.418;8.728;2023-07-31T09:10:03;5.72;;;2.60;;
23561;SDS011;11959;49.418;8.728;2023-07-31T09:12:30;7.22;;;2.60;;
23561;SDS011;11959;49.418;8.728;2023-07-31T09:14:59;6.05;;;2.60;;
23561;SDS011;11959;49.418;8.728;2023-07-31T09:17:32;4.72;;;2.03;;
23561;SDS011;11959;49.418;8.728;2023-07-31T09:20:19;6.80;;;2.40;;
23561;SDS011;11959;49.418;8.728;2023-07-31T09:22:45;5.25;;;2.20;;
23561;SDS011;11959;49.418;8.728;2023-07-31T09:25:20;4.72;;;2.33;;
23561;SDS011;11959;49.418;8.728;2023-07-31T09:27:56;4.55;;;2.00;;
23561;SDS011;11959;49.418;8.728;2023-07-31T09:30:23;5.32;;;2.60;;
23561;SDS011;11959;49.418;8.728;2023-07-31T09:32:49;4.43;;;2.05;;
23561;SDS011;11959;49.418;8.728;2023-07-31T09:37:52;6.72;;;2.50;;
23561;SDS011;11959;49.418;8.728;2023-07-31T09:40:27;6.15;;;2.17;;
23561;SDS011;11959;49.418;8.728;2023-07-31T09:42:57;5.65;;;2.30;;
23561;SDS011;11959;49.418;8.728;2023-07-31T09:45:27;6.30;;;2.50;;
23561;SDS011;11959;49.418;8.728;2023-07-31T09:47:53;6.43;;;2.30;;
23561;SDS011;11959;49.418;8.728;2023-07-31T09:50:20;6.32;;;2.65;;
23561;SDS011;11959;49.418;8.728;2023-07-31T09:52:47;6.25;;;2.90;;
23561;SDS011;11959;49.418;8.728;2023-07-31T09:55:13;7.07;;;2.88;;
23561;SDS011;11959;49.418;8.728;2023-07-31T09:57:44;7.47;;;2.90;;
23561;SDS011;11959;49.418;8.728;2023-07-31T10:00:13;8.40;;;3.20;;
23561;SDS011;11959;49.418;8.728;2023-07-31T10:02:41;5.70;;;2.50;;
23561;SDS011;11959;49.418;8.728;2023-07-31T10:05:08;6.75;;;2.70;;
23561;SDS011;11959;49.418;8.728;2023-07-31T10:07:36;3.63;;;2.35;;
23561;SDS011;11959;49.418;8.728;2023-07-31T10:10:06;5.15;;;2.50;;
23561;SDS011;11959;49.418;8.728;2023-07-31T10:12:34;5.28;;;2.38;;
23561;SDS011;11959;49.418;8.728;2023-07-31T10:15:01;5.28;;;2.67;;
23561;SDS011;11959;49.418;8.728;2023-07-31T10:17:27;6.63;;;3.00;;
23561;SDS011;11959;49.418;8.728;2023-07-31T10:19:57;5.07;;;2.42;;
23561;SDS011;11959;49.418;8.728;2023-07-31T10:22:26;5.65;;;2.45;;
23561;SDS011;11959;49.418;8.728;2023-07-31T10:24:52;6.07;;;2.78;;
23561;SDS011;11959;49.418;8.728;2023-07-31T10:27:22;5.78;;;2.85;;
23561;SDS011;11959;49.418;8.728;2023-07-31T10:29:48;6.85;;;2.78;;
23561;SDS011;11959;49.418;8.728;2023-07-31T10:32:15;4.78;;;2.30;;
23561;SDS011;11959;49.418;8.728;2023-07-31T10:34:42;6.65;;;2.88;;
23561;SDS011;11959;49.418;8.728;2023-07-31T10:37:21;5.07;;;2.88;;
23561;SDS011;11959;49.418;8.728;2023-07-31T10:40:03;5.15;;;2.80;;
23561;SDS011;11959;49.418;8.728;2023-07-31T10:44:59;5.65;;;2.80;;
23561;SDS011;11959;49.418;8.728;2023-07-31T10:47:30;6.30;;;3.38;;
23561;SDS011;11959;49.418;8.728;2023-07-31T10:53:03;6.13;;;3.00;;
23561;SDS011;11959;49.418;8.728;2023-07-31T10:55:30;6.22;;;2.80;;
23561;SDS011;11959;49.418;8.728;2023-07-31T10:58:00;6.10;;;2.92;;
23561;SDS011;11959;49.418;8.728;2023-07-31T11:00:39;5.90;;;3.00;;
23561;SDS011;11959;49.418;8.728;2023-07-31T11:03:07;6.88;;;2.88;;
23561;SDS011;11959;49.418;8.728;2023-07-31T11:10:43;5.38;;;2.78;;
23561;SDS011;11959;49.418;8.728;2023-07-31T11:13:09;7.78;;;3.28;;
23561;SDS011;11959;49.418;8.728;2023-07-31T11:15:35;7.30;;;2.85;;
23561;SDS011;11959;49.418;8.728;2023-07-31T11:18:01;8.00;;;3.35;;
23561;SDS011;11959;49.418;8.728;2023-07-31T11:20:34;8.40;;;3.05;;
23561;SDS011;11959;49.418;8.728;2023-07-31T11:23:06;5.70;;;2.88;;
23561;SDS011;11959;49.418;8.728;2023-07-31T11:25:35;6.35;;;2.90;;
23561;SDS011;11959;49.418;8.728;2023-07-31T11:28:11;5.80;;;2.60;;
23561;SDS011;11959;49.418;8.728;2023-07-31T11:30:41;5.80;;;2.70;;
23561;SDS011;11959;49.418;8.728;2023-07-31T11:33:09;6.47;;;2.95;;
23561;SDS011;11959;49.418;8.728;2023-07-31T11:35:40;5.57;;;2.92;;
23561;SDS011;11959;49.418;8.728;2023-07-31T11:38:07;9.50;;;3.10;;
23561;SDS011;11959;49.418;8.728;2023-07-31T11:40:40;5.75;;;2.65;;
23561;SDS011;11959;49.418;8.728;2023-07-31T11:43:07;4.70;;;2.60;;
23561;SDS011;11959;49.418;8.728;2023-07-31T11:45:33;4.75;;;2.70;;
23561;SDS011;11959;49.418;8.728;2023-07-31T11:48:00;6.85;;;2.75;;
23561;SDS011;11959;49.418;8.728;2023-07-31T11:50:26;6.10;;;2.55;;
23561;SDS011;11959;49.418;8.728;2023-07-31T11:53:02;8.15;;;3.00;;
23561;SDS011;11959;49.418;8.728;2023-07-31T11:55:33;5.47;;;2.88;;
23561;SDS011;11959;49.418;8.728;2023-07-31T11:58:00;8.40;;;2.60;;
23561;SDS011;11959;49.418;8.728;2023-07-31T12:00:25;7.95;;;2.55;;
23561;SDS011;11959;49.418;8.728;2023-07-31T12:02:52;7.80;;;3.03;;
23561;SDS011;11959;49.418;8.728;2023-07-31T12:05:18;5.43;;;2.63;;
23561;SDS011;11959;49.418;8.728;2023-07-31T12:10:27;5.40;;;2.67;;
23561;SDS011;11959;49.418;8.728;2023-07-31T12:12:58;7.03;;;2.50;;
23561;SDS011;11959;49.418;8.728;2023-07-31T12:15:44;4.65;;;2.67;;
23561;SDS011;11959;49.418;8.728;2023-07-31T12:18:11;6.00;;;2.78;;
23561;SDS011;11959;49.418;8.728;2023-07-31T12:20:57;6.53;;;2.50;;
23561;SDS011;11959;49.418;8.728;2023-07-31T12:23:28;5.07;;;2.42;;
23561;SDS011;11959;49.418;8.728;2023-07-31T12:26:05;8.30;;;2.90;;
23561;SDS011;11959;49.418;8.728;2023-07-31T12:31:08;7.05;;;2.97;;
23561;SDS011;11959;49.418;8.728;2023-07-31T12:33:35;8.65;;;2.72;;
23561;SDS011;11959;49.418;8.728;2023-07-31T12:36:04;7.40;;;3.22;;
23561;SDS011;11959;49.418;8.728;2023-07-31T12:38:35;5.93;;;2.80;;
23561;SDS011;11959;49.418;8.728;2023-07-31T12:41:00;7.03;;;2.83;;
23561;SDS011;11959;49.418;8.728;2023-07-31T12:43:26;4.30;;;2.05;;
23561;SDS011;11959;49.418;8.728;2023-07-31T12:45:53;5.70;;;2.88;;
23561;SDS011;11959;49.418;8.728;2023-07-31T12:48:20;5.60;;;2.72;;
23561;SDS011;11959;49.418;8.728;2023-07-31T12:50:45;6.20;;;2.90;;
23561;SDS011;11959;49.418;8.728;2023-07-31T12:53:11;6.25;;;2.90;;
23561;SDS011;11959;49.418;8.728;2023-07-31T12:55:37;5.57;;;2.80;;
23561;SDS011;11959;49.418;8.728;2023-07-31T12:58:03;5.75;;;2.85;;
23561;SDS011;11959;49.418;8.728;2023-07-31T13:00:29;6.35;;;2.55;;
23561;SDS011;11959;49.418;8.728;2023-07-31T13:02:54;5.15;;;2.72;;
23561;SDS011;11959;49.418;8.728;2023-07-31T13:05:20;6.35;;;2.78;;
23561;SDS011;11959;49.418;8.728;2023-07-31T13:07:46;5.55;;;2.55;;
23561;SDS011;11959;49.418;8.728;2023-07-31T13:10:12;4.70;;;2.58;;
23561;SDS011;11959;49.418;8.728;2023-07-31T13:12:38;4.97;;;2.80;;
23561;SDS011;11959;49.418;8.728;2023-07-31T13:15:04;5.32;;;2.70;;
23561;SDS011;11959;49.418;8.728;2023-07-31T13:17:30;8.38;;;2.80;;
23561;SDS011;11959;49.418;8.728;2023-07-31T13:19:56;5.35;;;2.50;;
23561;SDS011;11959;49.418;8.728;2023-07-31T13:22:22;6.40;;;2.80;;
23561;SDS011;11959;49.418;8.728;2023-07-31T13:24:48;3.85;;;2.22;;
23561;SDS011;11959;49.418;8.728;2023-07-31T13:27:14;6.63;;;2.60;;
23561;SDS011;11959;49.418;8.728;2023-07-31T13:29:44;7.47;;;2.72;;
23561;SDS011;11959;49.418;8.728;2023-07-31T13:32:10;6.93;;;2.90;;
23561;SDS011;11959;49.418;8.728;2023-07-31T13:34:36;5.07;;;2.78;;
23561;SDS011;11959;49.418;8.728;2023-07-31T13:37:02;3.78;;;2.70;;
23561;SDS011;11959;49.418;8.728;2023-07-31T13:39:28;4.53;;;2.72;;
23561;SDS011;11959;49.418;8.728;2023-07-31T13:41:54;9.20;;;3.10;;
23561;SDS011;11959;49.418;8.728;2023-07-31T13:44:20;3.92;;;2.58;;
23561;SDS011;11959;49.418;8.728;2023-07-31T13:46:46;7.15;;;2.88;;
23561;SDS011;11959;49.418;8.728;2023-07-31T13:49:11;6.15;;;2.78;;
23561;SDS011;11959;49.418;8.728;2023-07-31T13:51:37;8.82;;;2.72;;
23561;SDS011;11959;49.418;8.728;2023-07-31T13:54:04;6.60;;;2.60;;
23561;SDS011;11959;49.418;8.728;2023-07-31T13:56:31;7.95;;;2.97;;
23561;SDS011;11959;49.418;8.728;2023-07-31T13:58:56;4.45;;;2.55;;
23561;SDS011;11959;49.418;8.728;2023-07-31T14:01:22;5.38;;;3.05;;
23561;SDS011;11959;49.418;8.728;2023-07-31T14:03:49;6.68;;;2.65;;
23561;SDS011;11959;49.418;8.728;2023-07-31T14:06:14;5.75;;;2.25;;
23561;SDS011;11959;49.418;8.728;2023-07-31T14:08:40;5.40;;;2.72;;
23561;SDS011;11959;49.418;8.728;2023-07-31T14:11:06;5.70;;;2.65;;
23561;SDS011;11959;49.418;8.728;2023-07-31T14:13:31;5.43;;;2.55;;
23561;SDS011;11959;49.418;8.728;2023-07-31T14:15:57;5.63;;;2.90;;
23561;SDS011;11959;49.418;8.728;2023-07-31T14:18:22;5.00;;;2.88;;
23561;SDS011;11959;49.418;8.728;2023-07-31T14:20:48;6.13;;;2.60;;
23561;SDS011;11959;49.418;8.728;2023-07-31T14:23:14;6.35;;;3.00;;
23561;SDS011;11959;49.418;8.728;2023-07-31T14:25:40;5.28;;;2.75;;
23561;SDS011;11959;49.418;8.728;2023-07-31T14:28:06;5.05;;;3.00;;
23561;SDS011;11959;49.418;8.728;2023-07-31T14:30:32;5.43;;;2.53;;
23561;SDS011;11959;49.418;8.728;2023-07-31T14:32:57;7.72;;;2.75;;
23561;SDS011;11959;49.418;8.728;2023-07-31T14:35:25;5.25;;;2.67;;
23561;SDS011;11959;49.418;8.728;2023-07-31T14:37:51;5.03;;;2.60;;
23561;SDS011;11959;49.418;8.728;2023-07-31T14:40:16;5.55;;;2.47;;
23561;SDS011;11959;49.418;8.728;2023-07-31T14:42:43;4.22;;;2.45;;
23561;SDS011;11959;49.418;8.728;2023-07-31T14:45:08;5.10;;;2.42;;
23561;SDS011;11959;49.418;8.728;2023-07-31T14:47:35;5.78;;;2.75;;
23561;SDS011;11959;49.418;8.728;2023-07-31T14:50:01;6.68;;;2.80;;
23561;SDS011;11959;49.418;8.728;2023-07-31T14:52:27;4.93;;;2.38;;
23561;SDS011;11959;49.418;8.728;2023-07-31T14:54:53;4.32;;;2.35;;
23561;SDS011;11959;49.418;8.728;2023-07-31T14:57:19;6.35;;;2.75;;
23561;SDS011;11959;49.418;8.728;2023-07-31T14:59:45;6.78;;;2.97;;
23561;SDS011;11959;49.418;8.728;2023-07-31T15:02:11;4.93;;;2.38;;
23561;SDS011;11959;49.418;8.728;2023-07-31T15:04:36;6.88;;;2.78;;
23561;SDS011;11959;49.418;8.728;2023-07-31T15:07:02;6.07;;;2.88;;
23561;SDS011;11959;49.418;8.728;2023-07-31T15:09:28;7.35;;;2.70;;